sensor_id;sensor_type;location;lat;lon;timestamp;P1;durP1;ratioP1;P2;durP2;ratioP2
12818;SDS011;6474;53.474;9.894;2023-03-21T00:01:02;3.80;;;3.43;;
12818;SDS011;6474;53.474;9.894;2023-03-21T00:03:31;3.70;;;2.77;;
12818;SDS011;6474;53.474;9.894;2023-03-21T00:06:03;4.93;;;2.77;;
12818;SDS011;6474;53.474;9.894;2023-03-21T00:08:32;4.17;;;3.77;;
12818;SDS011;6474;53.474;9.894;2023-03-21T00:11:01;4.93;;;3.70;;
12818;SDS011;6474;53.474;9.894;2023-03-21T00:13:32;5.60;;;3.33;;
12818;SDS011;6474;53.474;9.894;2023-03-21T00:16:04;3.10;;;2.80;;
12818;SDS011;6474;53.474;9.894;2023-03-21T00:18:44;3.40;;;3.07;;
12818;SDS011;6474;53.474;9.894;2023-03-21T00:21:14;5.10;;;4.13;;
12818;SDS011;6474;53.474;9.894;2023-03-21T00:24:03;3.97;;;3.37;;
12818;SDS011;6474;53.474;9.894;2023-03-21T00:26:33;3.50;;;3.30;;
12818;SDS011;6474;53.474;9.894;2023-03-21T00:29:03;6.03;;;3.63;;
12818;SDS011;6474;53.474;9.894;2023-03-21T00:31:31;3.63;;;3.13;;
12818;SDS011;6474;53.474;9.894;2023-03-21T00:33:59;3.63;;;3.30;;
12818;SDS011;6474;53.474;9.894;2023-03-21T00:36:27;4.37;;;3.83;;
12818;SDS011;6474;53.474;9.894;2023-03-21T00:38:55;5.03;;;3.80;;
12818;SDS011;6474;53.474;9.894;2023-03-21T00:41:23;8.47;;;4.17;;
12818;SDS011;6474;53.474;9.894;2023-03-21T00:44:08;6.20;;;4.20;;
12818;SDS011;6474;53.474;9.894;2023-03-21T00:46:39;4.20;;;3.90;;
12818;SDS011;6474;53.474;9.894;2023-03-21T00:49:25;5.13;;;4.10;;
12818;SDS011;6474;53.474;9.894;2023-03-21T00:51:54;7.40;;;3.67;;
12818;SDS011;6474;53.474;9.894;2023-03-21T00:54:37;4.33;;;3.93;;
12818;SDS011;6474;53.474;9.894;2023-03-21T00:57:05;3.90;;;3.53;;
12818;SDS011;6474;53.474;9.894;2023-03-21T00:59:34;6.00;;;4.17;;
12818;SDS011;6474;53.474;9.894;2023-03-21T01:02:02;5.27;;;3.73;;
12818;SDS011;6474;53.474;9.894;2023-03-21T01:04:34;3.67;;;3.27;;
12818;SDS011;6474;53.474;9.894;2023-03-21T01:07:02;3.87;;;3.23;;
12818;SDS011;6474;53.474;9.894;2023-03-21T01:09:35;4.40;;;3.87;;
12818;SDS011;6474;53.474;9.894;2023-03-21T01:12:04;5.53;;;3.70;;
12818;SDS011;6474;53.474;9.894;2023-03-21T01:14:32;4.40;;;3.67;;
12818;SDS011;6474;53.474;9.894;2023-03-21T01:17:02;4.93;;;3.80;;
12818;SDS011;6474;53.474;9.894;2023-03-21T01:19:30;6.30;;;4.37;;
12818;SDS011;6474;53.474;9.894;2023-03-21T01:22:16;5.57;;;3.50;;
12818;SDS011;6474;53.474;9.894;2023-03-21T01:24:47;5.10;;;3.77;;
12818;SDS011;6474;53.474;9.894;2023-03-21T01:27:23;6.60;;;4.47;;
12818;SDS011;6474;53.474;9.894;2023-03-21T01:29:52;4.03;;;3.47;;
12818;SDS011;6474;53.474;9.894;2023-03-21T01:32:23;5.43;;;4.10;;
12818;SDS011;6474;53.474;9.894;2023-03-21T01:34:51;3.50;;;3.20;;
12818;SDS011;6474;53.474;9.894;2023-03-21T01:37:19;4.10;;;3.43;;
12818;SDS011;6474;53.474;9.894;2023-03-21T01:39:50;4.07;;;3.67;;
12818;SDS011;6474;53.474;9.894;2023-03-21T01:42:23;4.97;;;3.80;;
12818;SDS011;6474;53.474;9.894;2023-03-21T01:44:54;4.10;;;3.70;;
12818;SDS011;6474;53.474;9.894;2023-03-21T01:47:24;7.47;;;4.53;;
12818;SDS011;6474;53.474;9.894;2023-03-21T01:49:53;4.63;;;3.73;;
12818;SDS011;6474;53.474;9.894;2023-03-21T01:52:23;4.27;;;3.87;;
12818;SDS011;6474;53.474;9.894;2023-03-21T01:55:03;6.33;;;3.70;;
12818;SDS011;6474;53.474;9.894;2023-03-21T01:57:37;5.77;;;3.50;;
12818;SDS011;6474;53.474;9.894;2023-03-21T02:00:30;6.57;;;3.80;;
12818;SDS011;6474;53.474;9.894;2023-03-21T02:03:00;4.40;;;3.87;;
12818;SDS011;6474;53.474;9.894;2023-03-21T02:05:46;4.30;;;3.87;;
12818;SDS011;6474;53.474;9.894;2023-03-21T02:08:17;4.80;;;4.10;;
12818;SDS011;6474;53.474;9.894;2023-03-21T02:10:58;4.60;;;3.80;;
12818;SDS011;6474;53.474;9.894;2023-03-21T02:13:26;3.60;;;3.40;;
12818;SDS011;6474;53.474;9.894;2023-03-21T02:15:57;4.67;;;4.27;;
12818;SDS011;6474;53.474;9.894;2023-03-21T02:18:29;5.00;;;3.87;;
12818;SDS011;6474;53.474;9.894;2023-03-21T02:21:08;5.57;;;4.33;;
12818;SDS011;6474;53.474;9.894;2023-03-21T02:24:00;6.00;;;4.27;;
12818;SDS011;6474;53.474;9.894;2023-03-21T02:27:03;4.70;;;4.30;;
12818;SDS011;6474;53.474;9.894;2023-03-21T02:29:46;7.03;;;4.30;;
12818;SDS011;6474;53.474;9.894;2023-03-21T02:32:51;5.83;;;4.33;;
12818;SDS011;6474;53.474;9.894;2023-03-21T02:35:37;9.60;;;4.03;;
12818;SDS011;6474;53.474;9.894;2023-03-21T02:38:25;4.47;;;3.60;;
12818;SDS011;6474;53.474;9.894;2023-03-21T02:40:59;7.00;;;4.83;;
12818;SDS011;6474;53.474;9.894;2023-03-21T02:43:43;5.03;;;4.23;;
12818;SDS011;6474;53.474;9.894;2023-03-21T02:46:17;4.60;;;4.20;;
12818;SDS011;6474;53.474;9.894;2023-03-21T02:48:52;4.53;;;3.43;;
12818;SDS011;6474;53.474;9.894;2023-03-21T02:51:24;6.50;;;4.10;;
12818;SDS011;6474;53.474;9.894;2023-03-21T02:53:57;5.60;;;4.93;;
12818;SDS011;6474;53.474;9.894;2023-03-21T02:56:49;5.70;;;4.77;;
12818;SDS011;6474;53.474;9.894;2023-03-21T02:59:20;4.17;;;3.60;;
12818;SDS011;6474;53.474;9.894;2023-03-21T03:01:50;3.70;;;3.40;;
12818;SDS011;6474;53.474;9.894;2023-03-21T03:04:19;6.57;;;4.93;;
12818;SDS011;6474;53.474;9.894;2023-03-21T03:06:56;5.00;;;3.67;;
12818;SDS011;6474;53.474;9.894;2023-03-21T03:09:41;4.37;;;3.80;;
12818;SDS011;6474;53.474;9.894;2023-03-21T03:12:28;5.37;;;4.37;;
12818;SDS011;6474;53.474;9.894;2023-03-21T03:15:08;4.60;;;4.17;;
12818;SDS011;6474;53.474;9.894;2023-03-21T03:17:46;5.40;;;3.67;;
12818;SDS011;6474;53.474;9.894;2023-03-21T03:20:19;4.90;;;4.10;;
12818;SDS011;6474;53.474;9.894;2023-03-21T03:22:53;6.33;;;5.53;;
12818;SDS011;6474;53.474;9.894;2023-03-21T03:25:28;4.10;;;3.70;;
12818;SDS011;6474;53.474;9.894;2023-03-21T03:28:09;4.47;;;3.80;;
12818;SDS011;6474;53.474;9.894;2023-03-21T03:30:39;6.70;;;4.17;;
12818;SDS011;6474;53.474;9.894;2023-03-21T03:33:26;6.63;;;4.47;;
12818;SDS011;6474;53.474;9.894;2023-03-21T03:35:56;4.60;;;4.13;;
12818;SDS011;6474;53.474;9.894;2023-03-21T03:38:32;4.50;;;4.10;;
12818;SDS011;6474;53.474;9.894;2023-03-21T03:41:08;5.13;;;4.37;;
12818;SDS011;6474;53.474;9.894;2023-03-21T03:43:42;6.67;;;4.13;;
12818;SDS011;6474;53.474;9.894;2023-03-21T03:46:16;7.30;;;4.37;;
12818;SDS011;6474;53.474;9.894;2023-03-21T03:48:50;4.83;;;3.97;;
12818;SDS011;6474;53.474;9.894;2023-03-21T03:51:22;5.57;;;4.17;;
12818;SDS011;6474;53.474;9.894;2023-03-21T03:53:54;4.50;;;4.00;;
12818;SDS011;6474;53.474;9.894;2023-03-21T03:56:26;4.20;;;3.70;;
12818;SDS011;6474;53.474;9.894;2023-03-21T03:58:55;7.67;;;4.30;;
12818;SDS011;6474;53.474;9.894;2023-03-21T04:01:23;5.47;;;4.40;;
12818;SDS011;6474;53.474;9.894;2023-03-21T04:03:51;6.23;;;4.23;;
12818;SDS011;6474;53.474;9.894;2023-03-21T04:06:35;5.73;;;4.30;;
12818;SDS011;6474;53.474;9.894;2023-03-21T04:09:03;5.13;;;4.63;;
12818;SDS011;6474;53.474;9.894;2023-03-21T04:11:46;6.97;;;4.60;;
12818;SDS011;6474;53.474;9.894;2023-03-21T04:14:15;6.00;;;3.73;;
12818;SDS011;6474;53.474;9.894;2023-03-21T04:16:43;6.47;;;4.70;;
12818;SDS011;6474;53.474;9.894;2023-03-21T04:19:10;7.33;;;4.53;;
12818;SDS011;6474;53.474;9.894;2023-03-21T04:21:38;9.53;;;4.77;;
12818;SDS011;6474;53.474;9.894;2023-03-21T04:24:06;5.90;;;4.13;;
12818;SDS011;6474;53.474;9.894;2023-03-21T04:26:37;5.27;;;4.17;;
12818;SDS011;6474;53.474;9.894;2023-03-21T04:29:06;10.13;;;5.13;;
12818;SDS011;6474;53.474;9.894;2023-03-21T04:31:34;6.60;;;4.37;;
12818;SDS011;6474;53.474;9.894;2023-03-21T04:34:02;6.40;;;4.10;;
12818;SDS011;6474;53.474;9.894;2023-03-21T04:36:35;6.73;;;4.63;;
12818;SDS011;6474;53.474;9.894;2023-03-21T04:39:07;6.13;;;4.50;;
12818;SDS011;6474;53.474;9.894;2023-03-21T04:41:38;6.77;;;4.70;;
12818;SDS011;6474;53.474;9.894;2023-03-21T04:44:07;6.37;;;4.33;;
12818;SDS011;6474;53.474;9.894;2023-03-21T04:46:37;8.27;;;5.03;;
12818;SDS011;6474;53.474;9.894;2023-03-21T04:49:05;8.60;;;4.27;;
12818;SDS011;6474;53.474;9.894;2023-03-21T04:51:34;7.73;;;4.57;;
12818;SDS011;6474;53.474;9.894;2023-03-21T04:54:02;8.47;;;4.87;;
12818;SDS011;6474;53.474;9.894;2023-03-21T04:56:31;6.40;;;4.03;;
12818;SDS011;6474;53.474;9.894;2023-03-21T04:59:04;5.77;;;3.73;;
12818;SDS011;6474;53.474;9.894;2023-03-21T05:01:34;5.43;;;4.17;;
12818;SDS011;6474;53.474;9.894;2023-03-21T05:04:02;6.37;;;4.10;;
12818;SDS011;6474;53.474;9.894;2023-03-21T05:06:31;4.63;;;4.17;;
12818;SDS011;6474;53.474;9.894;2023-03-21T05:09:00;4.97;;;4.03;;
12818;SDS011;6474;53.474;9.894;2023-03-21T05:11:32;5.43;;;4.17;;
12818;SDS011;6474;53.474;9.894;2023-03-21T05:14:03;4.63;;;4.10;;
12818;SDS011;6474;53.474;9.894;2023-03-21T05:16:31;4.90;;;4.40;;
12818;SDS011;6474;53.474;9.894;2023-03-21T05:19:01;6.03;;;4.33;;
12818;SDS011;6474;53.474;9.894;2023-03-21T05:21:30;5.33;;;4.70;;
12818;SDS011;6474;53.474;9.894;2023-03-21T05:24:07;4.63;;;4.03;;
12818;SDS011;6474;53.474;9.894;2023-03-21T05:26:37;7.17;;;4.83;;
12818;SDS011;6474;53.474;9.894;2023-03-21T05:29:05;4.73;;;4.30;;
12818;SDS011;6474;53.474;9.894;2023-03-21T05:31:34;4.23;;;3.90;;
12818;SDS011;6474;53.474;9.894;2023-03-21T05:34:03;4.77;;;3.90;;
12818;SDS011;6474;53.474;9.894;2023-03-21T05:36:31;7.37;;;4.00;;
12818;SDS011;6474;53.474;9.894;2023-03-21T05:39:01;4.10;;;3.80;;
12818;SDS011;6474;53.474;9.894;2023-03-21T05:41:29;6.17;;;4.63;;
12818;SDS011;6474;53.474;9.894;2023-03-21T05:43:57;4.83;;;3.50;;
12818;SDS011;6474;53.474;9.894;2023-03-21T05:46:25;4.17;;;3.83;;
12818;SDS011;6474;53.474;9.894;2023-03-21T05:48:53;3.67;;;3.37;;
12818;SDS011;6474;53.474;9.894;2023-03-21T05:51:23;5.20;;;4.13;;
12818;SDS011;6474;53.474;9.894;2023-03-21T05:53:51;4.27;;;3.93;;
12818;SDS011;6474;53.474;9.894;2023-03-21T05:56:19;4.17;;;3.70;;
12818;SDS011;6474;53.474;9.894;2023-03-21T05:58:46;3.90;;;3.47;;
12818;SDS011;6474;53.474;9.894;2023-03-21T06:01:14;4.50;;;3.73;;
12818;SDS011;6474;53.474;9.894;2023-03-21T06:03:42;4.17;;;3.70;;
12818;SDS011;6474;53.474;9.894;2023-03-21T06:06:10;5.43;;;4.90;;
12818;SDS011;6474;53.474;9.894;2023-03-21T06:08:39;5.63;;;4.03;;
12818;SDS011;6474;53.474;9.894;2023-03-21T06:11:09;4.27;;;3.60;;
12818;SDS011;6474;53.474;9.894;2023-03-21T06:13:42;3.97;;;3.67;;
12818;SDS011;6474;53.474;9.894;2023-03-21T06:16:10;4.07;;;3.70;;
12818;SDS011;6474;53.474;9.894;2023-03-21T06:18:38;5.83;;;4.10;;
12818;SDS011;6474;53.474;9.894;2023-03-21T06:21:05;4.70;;;4.30;;
12818;SDS011;6474;53.474;9.894;2023-03-21T06:23:33;5.67;;;4.30;;
12818;SDS011;6474;53.474;9.894;2023-03-21T06:26:04;5.57;;;4.50;;
12818;SDS011;6474;53.474;9.894;2023-03-21T06:28:32;4.43;;;3.93;;
12818;SDS011;6474;53.474;9.894;2023-03-21T06:31:00;4.23;;;3.83;;
12818;SDS011;6474;53.474;9.894;2023-03-21T06:33:28;6.63;;;4.23;;
12818;SDS011;6474;53.474;9.894;2023-03-21T06:35:57;8.37;;;4.23;;
12818;SDS011;6474;53.474;9.894;2023-03-21T06:38:25;5.57;;;4.20;;
12818;SDS011;6474;53.474;9.894;2023-03-21T06:40:53;5.00;;;4.43;;
12818;SDS011;6474;53.474;9.894;2023-03-21T06:43:22;4.60;;;4.10;;
12818;SDS011;6474;53.474;9.894;2023-03-21T06:45:50;5.83;;;4.73;;
12818;SDS011;6474;53.474;9.894;2023-03-21T06:48:18;6.00;;;4.30;;
12818;SDS011;6474;53.474;9.894;2023-03-21T06:50:46;6.57;;;4.97;;
12818;SDS011;6474;53.474;9.894;2023-03-21T06:53:15;6.43;;;4.33;;
12818;SDS011;6474;53.474;9.894;2023-03-21T06:55:47;6.27;;;5.07;;
12818;SDS011;6474;53.474;9.894;2023-03-21T06:58:16;5.17;;;4.63;;
12818;SDS011;6474;53.474;9.894;2023-03-21T07:00:45;4.83;;;4.37;;
12818;SDS011;6474;53.474;9.894;2023-03-21T07:03:13;6.97;;;4.50;;
12818;SDS011;6474;53.474;9.894;2023-03-21T07:05:42;6.27;;;4.80;;
12818;SDS011;6474;53.474;9.894;2023-03-21T07:08:09;5.20;;;4.67;;
12818;SDS011;6474;53.474;9.894;2023-03-21T07:10:39;7.67;;;5.17;;
12818;SDS011;6474;53.474;9.894;2023-03-21T07:13:10;6.30;;;4.97;;
12818;SDS011;6474;53.474;9.894;2023-03-21T07:15:38;5.60;;;4.13;;
12818;SDS011;6474;53.474;9.894;2023-03-21T07:18:08;5.40;;;4.80;;
12818;SDS011;6474;53.474;9.894;2023-03-21T07:20:36;5.80;;;4.53;;
12818;SDS011;6474;53.474;9.894;2023-03-21T07:23:04;6.93;;;4.67;;
12818;SDS011;6474;53.474;9.894;2023-03-21T07:25:32;6.77;;;5.50;;
12818;SDS011;6474;53.474;9.894;2023-03-21T07:28:01;7.80;;;5.07;;
12818;SDS011;6474;53.474;9.894;2023-03-21T07:30:31;6.70;;;5.20;;
12818;SDS011;6474;53.474;9.894;2023-03-21T07:33:02;7.20;;;4.50;;
12818;SDS011;6474;53.474;9.894;2023-03-21T07:35:32;7.17;;;4.93;;
12818;SDS011;6474;53.474;9.894;2023-03-21T07:38:01;6.90;;;5.03;;
12818;SDS011;6474;53.474;9.894;2023-03-21T07:40:29;8.57;;;5.23;;
12818;SDS011;6474;53.474;9.894;2023-03-21T07:42:57;12.63;;;4.90;;
12818;SDS011;6474;53.474;9.894;2023-03-21T07:45:30;10.50;;;6.13;;
12818;SDS011;6474;53.474;9.894;2023-03-21T07:47:58;8.03;;;5.47;;
12818;SDS011;6474;53.474;9.894;2023-03-21T07:50:26;11.00;;;6.83;;
12818;SDS011;6474;53.474;9.894;2023-03-21T07:52:55;10.20;;;6.00;;
12818;SDS011;6474;53.474;9.894;2023-03-21T07:55:23;8.40;;;5.47;;
12818;SDS011;6474;53.474;9.894;2023-03-21T07:57:51;9.00;;;5.40;;
12818;SDS011;6474;53.474;9.894;2023-03-21T08:00:20;8.73;;;5.70;;
12818;SDS011;6474;53.474;9.894;2023-03-21T08:02:49;7.63;;;5.27;;
12818;SDS011;6474;53.474;9.894;2023-03-21T08:05:27;6.87;;;4.70;;
12818;SDS011;6474;53.474;9.894;2023-03-21T08:07:58;6.57;;;4.93;;
12818;SDS011;6474;53.474;9.894;2023-03-21T08:10:26;6.70;;;5.03;;
12818;SDS011;6474;53.474;9.894;2023-03-21T08:12:54;7.07;;;5.63;;
12818;SDS011;6474;53.474;9.894;2023-03-21T08:15:22;9.70;;;5.43;;
12818;SDS011;6474;53.474;9.894;2023-03-21T08:17:50;7.20;;;4.90;;
12818;SDS011;6474;53.474;9.894;2023-03-21T08:20:19;6.73;;;5.30;;
12818;SDS011;6474;53.474;9.894;2023-03-21T08:22:48;7.77;;;5.30;;
12818;SDS011;6474;53.474;9.894;2023-03-21T08:25:19;5.40;;;4.90;;
12818;SDS011;6474;53.474;9.894;2023-03-21T08:27:48;4.13;;;3.70;;
12818;SDS011;6474;53.474;9.894;2023-03-21T08:30:17;6.87;;;5.07;;
12818;SDS011;6474;53.474;9.894;2023-03-21T08:32:47;6.03;;;4.67;;
12818;SDS011;6474;53.474;9.894;2023-03-21T08:35:16;4.70;;;4.27;;
12818;SDS011;6474;53.474;9.894;2023-03-21T08:37:45;7.07;;;5.33;;
12818;SDS011;6474;53.474;9.894;2023-03-21T08:40:18;5.73;;;4.50;;
12818;SDS011;6474;53.474;9.894;2023-03-21T08:42:46;5.23;;;3.90;;
12818;SDS011;6474;53.474;9.894;2023-03-21T08:45:15;6.00;;;4.43;;
12818;SDS011;6474;53.474;9.894;2023-03-21T08:47:43;7.27;;;4.80;;
12818;SDS011;6474;53.474;9.894;2023-03-21T08:50:13;4.87;;;4.50;;
12818;SDS011;6474;53.474;9.894;2023-03-21T08:52:42;7.60;;;5.10;;
12818;SDS011;6474;53.474;9.894;2023-03-21T08:55:10;7.93;;;5.10;;
12818;SDS011;6474;53.474;9.894;2023-03-21T08:57:41;7.60;;;5.53;;
12818;SDS011;6474;53.474;9.894;2023-03-21T09:00:10;8.17;;;5.73;;
12818;SDS011;6474;53.474;9.894;2023-03-21T09:02:43;7.50;;;5.23;;
12818;SDS011;6474;53.474;9.894;2023-03-21T09:05:11;9.97;;;5.47;;
12818;SDS011;6474;53.474;9.894;2023-03-21T09:07:40;6.90;;;6.03;;
12818;SDS011;6474;53.474;9.894;2023-03-21T09:10:10;6.83;;;5.73;;
12818;SDS011;6474;53.474;9.894;2023-03-21T09:12:49;12.50;;;5.80;;
12818;SDS011;6474;53.474;9.894;2023-03-21T09:15:18;7.73;;;5.73;;
12818;SDS011;6474;53.474;9.894;2023-03-21T09:17:49;7.53;;;5.37;;
12818;SDS011;6474;53.474;9.894;2023-03-21T09:20:19;10.53;;;5.43;;
12818;SDS011;6474;53.474;9.894;2023-03-21T09:22:56;11.80;;;6.20;;
12818;SDS011;6474;53.474;9.894;2023-03-21T09:25:25;9.07;;;6.17;;
12818;SDS011;6474;53.474;9.894;2023-03-21T09:27:56;9.90;;;5.53;;
12818;SDS011;6474;53.474;9.894;2023-03-21T09:30:24;7.37;;;5.30;;
12818;SDS011;6474;53.474;9.894;2023-03-21T09:32:52;7.47;;;5.50;;
12818;SDS011;6474;53.474;9.894;2023-03-21T09:35:28;6.43;;;5.47;;
12818;SDS011;6474;53.474;9.894;2023-03-21T09:38:03;6.73;;;4.37;;
12818;SDS011;6474;53.474;9.894;2023-03-21T09:40:41;8.00;;;5.20;;
12818;SDS011;6474;53.474;9.894;2023-03-21T09:43:25;7.40;;;5.20;;
12818;SDS011;6474;53.474;9.894;2023-03-21T09:46:19;5.67;;;5.00;;
12818;SDS011;6474;53.474;9.894;2023-03-21T09:49:02;7.10;;;4.87;;
12818;SDS011;6474;53.474;9.894;2023-03-21T09:51:36;4.40;;;3.93;;
12818;SDS011;6474;53.474;9.894;2023-03-21T09:54:27;6.83;;;4.57;;
12818;SDS011;6474;53.474;9.894;2023-03-21T09:57:01;11.73;;;5.17;;
12818;SDS011;6474;53.474;9.894;2023-03-21T09:59:41;9.00;;;4.77;;
12818;SDS011;6474;53.474;9.894;2023-03-21T10:02:15;6.87;;;5.20;;
12818;SDS011;6474;53.474;9.894;2023-03-21T10:04:57;7.30;;;4.27;;
12818;SDS011;6474;53.474;9.894;2023-03-21T10:07:26;7.10;;;4.77;;
12818;SDS011;6474;53.474;9.894;2023-03-21T10:09:58;6.33;;;4.27;;
12818;SDS011;6474;53.474;9.894;2023-03-21T10:12:28;6.20;;;4.30;;
12818;SDS011;6474;53.474;9.894;2023-03-21T10:14:58;4.17;;;3.87;;
12818;SDS011;6474;53.474;9.894;2023-03-21T10:17:31;5.57;;;3.77;;
12818;SDS011;6474;53.474;9.894;2023-03-21T10:20:09;3.67;;;3.37;;
12818;SDS011;6474;53.474;9.894;2023-03-21T10:22:40;7.17;;;4.67;;
12818;SDS011;6474;53.474;9.894;2023-03-21T10:25:10;4.93;;;4.53;;
12818;SDS011;6474;53.474;9.894;2023-03-21T10:27:41;7.47;;;4.50;;
12818;SDS011;6474;53.474;9.894;2023-03-21T10:30:14;4.83;;;4.40;;
12818;SDS011;6474;53.474;9.894;2023-03-21T10:32:51;3.93;;;3.53;;
12818;SDS011;6474;53.474;9.894;2023-03-21T10:35:19;9.37;;;4.77;;
12818;SDS011;6474;53.474;9.894;2023-03-21T10:37:47;4.40;;;3.83;;
12818;SDS011;6474;53.474;9.894;2023-03-21T10:40:15;8.33;;;5.10;;
12818;SDS011;6474;53.474;9.894;2023-03-21T10:42:44;5.07;;;4.57;;
12818;SDS011;6474;53.474;9.894;2023-03-21T10:45:24;8.27;;;4.93;;
12818;SDS011;6474;53.474;9.894;2023-03-21T10:47:52;4.33;;;3.97;;
12818;SDS011;6474;53.474;9.894;2023-03-21T10:50:20;7.37;;;4.30;;
12818;SDS011;6474;53.474;9.894;2023-03-21T10:52:52;7.23;;;4.13;;
12818;SDS011;6474;53.474;9.894;2023-03-21T10:55:26;9.80;;;5.07;;
12818;SDS011;6474;53.474;9.894;2023-03-21T10:57:56;6.13;;;5.07;;
12818;SDS011;6474;53.474;9.894;2023-03-21T11:00:33;11.50;;;5.43;;
12818;SDS011;6474;53.474;9.894;2023-03-21T11:03:03;6.53;;;4.97;;
12818;SDS011;6474;53.474;9.894;2023-03-21T11:05:33;12.40;;;4.23;;
12818;SDS011;6474;53.474;9.894;2023-03-21T11:08:03;12.43;;;5.93;;
12818;SDS011;6474;53.474;9.894;2023-03-21T11:10:33;8.13;;;5.50;;
12818;SDS011;6474;53.474;9.894;2023-03-21T11:13:04;7.47;;;5.07;;
12818;SDS011;6474;53.474;9.894;2023-03-21T11:15:39;6.43;;;5.20;;
12818;SDS011;6474;53.474;9.894;2023-03-21T11:18:17;6.70;;;4.90;;
12818;SDS011;6474;53.474;9.894;2023-03-21T11:20:50;5.67;;;4.03;;
12818;SDS011;6474;53.474;9.894;2023-03-21T11:23:20;4.43;;;4.00;;
12818;SDS011;6474;53.474;9.894;2023-03-21T11:25:54;6.33;;;4.57;;
12818;SDS011;6474;53.474;9.894;2023-03-21T11:28:26;8.50;;;4.87;;
12818;SDS011;6474;53.474;9.894;2023-03-21T11:31:02;5.57;;;4.77;;
12818;SDS011;6474;53.474;9.894;2023-03-21T11:33:33;8.80;;;4.93;;
12818;SDS011;6474;53.474;9.894;2023-03-21T11:36:04;6.07;;;4.60;;
12818;SDS011;6474;53.474;9.894;2023-03-21T11:38:35;7.13;;;5.00;;
12818;SDS011;6474;53.474;9.894;2023-03-21T11:41:05;7.53;;;4.97;;
12818;SDS011;6474;53.474;9.894;2023-03-21T11:43:34;5.37;;;4.90;;
12818;SDS011;6474;53.474;9.894;2023-03-21T11:46:08;5.40;;;4.07;;
12818;SDS011;6474;53.474;9.894;2023-03-21T11:48:40;7.03;;;4.77;;
12818;SDS011;6474;53.474;9.894;2023-03-21T11:51:11;5.93;;;4.53;;
12818;SDS011;6474;53.474;9.894;2023-03-21T11:53:48;5.37;;;4.13;;
12818;SDS011;6474;53.474;9.894;2023-03-21T11:56:24;4.43;;;4.03;;
12818;SDS011;6474;53.474;9.894;2023-03-21T11:58:57;5.77;;;3.97;;
12818;SDS011;6474;53.474;9.894;2023-03-21T12:01:42;7.33;;;4.73;;
12818;SDS011;6474;53.474;9.894;2023-03-21T12:04:19;4.03;;;3.63;;
12818;SDS011;6474;53.474;9.894;2023-03-21T12:06:59;4.10;;;3.70;;
12818;SDS011;6474;53.474;9.894;2023-03-21T12:09:33;5.70;;;4.17;;
12818;SDS011;6474;53.474;9.894;2023-03-21T12:12:14;4.77;;;4.07;;
12818;SDS011;6474;53.474;9.894;2023-03-21T12:15:05;3.67;;;3.33;;
12818;SDS011;6474;53.474;9.894;2023-03-21T12:17:44;3.80;;;3.47;;
12818;SDS011;6474;53.474;9.894;2023-03-21T12:20:25;4.80;;;4.03;;
12818;SDS011;6474;53.474;9.894;2023-03-21T12:23:06;3.20;;;3.00;;
12818;SDS011;6474;53.474;9.894;2023-03-21T12:25:55;2.63;;;2.43;;
12818;SDS011;6474;53.474;9.894;2023-03-21T12:28:34;2.97;;;2.87;;
12818;SDS011;6474;53.474;9.894;2023-03-21T12:31:17;3.13;;;2.93;;
12818;SDS011;6474;53.474;9.894;2023-03-21T12:33:56;6.17;;;3.30;;
12818;SDS011;6474;53.474;9.894;2023-03-21T12:36:36;3.63;;;3.33;;
12818;SDS011;6474;53.474;9.894;2023-03-21T12:39:16;5.07;;;2.87;;
12818;SDS011;6474;53.474;9.894;2023-03-21T12:41:52;2.60;;;2.43;;
12818;SDS011;6474;53.474;9.894;2023-03-21T12:44:46;3.13;;;2.80;;
12818;SDS011;6474;53.474;9.894;2023-03-21T12:47:18;2.83;;;2.63;;
12818;SDS011;6474;53.474;9.894;2023-03-21T12:49:52;3.40;;;3.10;;
12818;SDS011;6474;53.474;9.894;2023-03-21T12:52:24;2.67;;;2.47;;
12818;SDS011;6474;53.474;9.894;2023-03-21T12:54:55;2.80;;;2.60;;
12818;SDS011;6474;53.474;9.894;2023-03-21T12:57:29;2.80;;;2.60;;
12818;SDS011;6474;53.474;9.894;2023-03-21T13:00:02;3.73;;;3.43;;
12818;SDS011;6474;53.474;9.894;2023-03-21T13:02:39;3.20;;;2.90;;
12818;SDS011;6474;53.474;9.894;2023-03-21T13:05:15;3.10;;;2.87;;
12818;SDS011;6474;53.474;9.894;2023-03-21T13:07:48;4.27;;;3.37;;
12818;SDS011;6474;53.474;9.894;2023-03-21T13:10:20;3.13;;;2.90;;
12818;SDS011;6474;53.474;9.894;2023-03-21T13:12:53;2.90;;;2.43;;
12818;SDS011;6474;53.474;9.894;2023-03-21T13:15:38;2.77;;;2.57;;
12818;SDS011;6474;53.474;9.894;2023-03-21T13:18:18;2.70;;;2.47;;
12818;SDS011;6474;53.474;9.894;2023-03-21T13:20:55;3.03;;;2.83;;
12818;SDS011;6474;53.474;9.894;2023-03-21T13:23:24;2.33;;;2.23;;
12818;SDS011;6474;53.474;9.894;2023-03-21T13:25:59;3.97;;;2.87;;
12818;SDS011;6474;53.474;9.894;2023-03-21T13:28:27;2.80;;;2.60;;
12818;SDS011;6474;53.474;9.894;2023-03-21T13:33:44;2.83;;;2.63;;
12818;SDS011;6474;53.474;9.894;2023-03-21T13:36:17;2.87;;;2.67;;
12818;SDS011;6474;53.474;9.894;2023-03-21T13:38:52;3.00;;;2.90;;
12818;SDS011;6474;53.474;9.894;2023-03-21T13:41:28;3.57;;;3.23;;
12818;SDS011;6474;53.474;9.894;2023-03-21T13:44:05;2.67;;;2.57;;
12818;SDS011;6474;53.474;9.894;2023-03-21T13:46:43;3.17;;;2.97;;
12818;SDS011;6474;53.474;9.894;2023-03-21T13:49:26;3.00;;;2.80;;
12818;SDS011;6474;53.474;9.894;2023-03-21T13:51:59;2.80;;;2.60;;
12818;SDS011;6474;53.474;9.894;2023-03-21T13:57:20;3.20;;;2.97;;
12818;SDS011;6474;53.474;9.894;2023-03-21T14:00:15;2.83;;;2.70;;
12818;SDS011;6474;53.474;9.894;2023-03-21T14:02:51;2.33;;;2.23;;
12818;SDS011;6474;53.474;9.894;2023-03-21T14:05:22;2.97;;;2.83;;
12818;SDS011;6474;53.474;9.894;2023-03-21T14:07:54;3.80;;;3.33;;
12818;SDS011;6474;53.474;9.894;2023-03-21T14:10:36;2.80;;;2.60;;
12818;SDS011;6474;53.474;9.894;2023-03-21T14:13:07;2.93;;;2.73;;
12818;SDS011;6474;53.474;9.894;2023-03-21T14:15:36;2.70;;;2.60;;
12818;SDS011;6474;53.474;9.894;2023-03-21T14:18:21;2.83;;;2.63;;
12818;SDS011;6474;53.474;9.894;2023-03-21T14:21:13;2.90;;;2.27;;
12818;SDS011;6474;53.474;9.894;2023-03-21T14:23:55;3.20;;;2.80;;
12818;SDS011;6474;53.474;9.894;2023-03-21T14:26:28;2.70;;;2.50;;
12818;SDS011;6474;53.474;9.894;2023-03-21T14:28:58;2.80;;;2.70;;
12818;SDS011;6474;53.474;9.894;2023-03-21T14:31:32;2.13;;;2.10;;
12818;SDS011;6474;53.474;9.894;2023-03-21T14:34:01;4.50;;;2.83;;
12818;SDS011;6474;53.474;9.894;2023-03-21T14:36:31;2.90;;;2.80;;
12818;SDS011;6474;53.474;9.894;2023-03-21T14:39:13;2.63;;;2.43;;
12818;SDS011;6474;53.474;9.894;2023-03-21T14:41:46;3.33;;;2.93;;
12818;SDS011;6474;53.474;9.894;2023-03-21T14:44:17;2.53;;;2.40;;
12818;SDS011;6474;53.474;9.894;2023-03-21T14:46:58;2.27;;;2.17;;
12818;SDS011;6474;53.474;9.894;2023-03-21T14:49:28;2.80;;;2.70;;
12818;SDS011;6474;53.474;9.894;2023-03-21T14:51:57;2.73;;;2.60;;
12818;SDS011;6474;53.474;9.894;2023-03-21T14:54:28;2.47;;;2.33;;
12818;SDS011;6474;53.474;9.894;2023-03-21T14:56:59;2.90;;;2.60;;
12818;SDS011;6474;53.474;9.894;2023-03-21T14:59:29;2.67;;;2.57;;
12818;SDS011;6474;53.474;9.894;2023-03-21T15:02:02;2.67;;;2.53;;
12818;SDS011;6474;53.474;9.894;2023-03-21T15:04:33;2.60;;;2.40;;
12818;SDS011;6474;53.474;9.894;2023-03-21T15:07:01;2.70;;;2.60;;
12818;SDS011;6474;53.474;9.894;2023-03-21T15:09:32;2.73;;;2.63;;
12818;SDS011;6474;53.474;9.894;2023-03-21T15:12:01;3.00;;;2.63;;
12818;SDS011;6474;53.474;9.894;2023-03-21T15:14:35;2.30;;;2.20;;
12818;SDS011;6474;53.474;9.894;2023-03-21T15:17:04;2.17;;;2.17;;
12818;SDS011;6474;53.474;9.894;2023-03-21T15:19:34;3.33;;;2.47;;
12818;SDS011;6474;53.474;9.894;2023-03-21T15:22:07;3.30;;;3.00;;
12818;SDS011;6474;53.474;9.894;2023-03-21T15:24:41;3.13;;;2.97;;
12818;SDS011;6474;53.474;9.894;2023-03-21T15:27:14;2.50;;;2.30;;
12818;SDS011;6474;53.474;9.894;2023-03-21T15:29:44;3.90;;;2.80;;
12818;SDS011;6474;53.474;9.894;2023-03-21T15:32:13;2.70;;;2.60;;
12818;SDS011;6474;53.474;9.894;2023-03-21T15:34:43;2.67;;;2.03;;
12818;SDS011;6474;53.474;9.894;2023-03-21T15:37:14;2.20;;;2.10;;
12818;SDS011;6474;53.474;9.894;2023-03-21T15:39:45;4.13;;;1.93;;